createdAt,value
2022-08-19T00:01:37.738Z,5.45
2022-08-19T00:04:08.246Z,4.90
2022-08-19T00:06:38.055Z,3.95
2022-08-19T00:09:07.862Z,3.70
2022-08-19T00:11:38.063Z,3.60
2022-08-19T00:14:07.497Z,3.63
2022-08-19T00:16:35.367Z,3.38
2022-08-19T00:19:02.664Z,3.67
2022-08-19T00:21:29.968Z,4.20
2022-08-19T00:24:01.150Z,2.83
2022-08-19T00:26:29.100Z,2.22
2022-08-19T00:28:56.651Z,2.50
2022-08-19T00:31:23.949Z,3.05
2022-08-19T00:33:51.439Z,2.30
2022-08-19T00:36:18.823Z,2.40
2022-08-19T00:38:46.531Z,2.50
2022-08-19T00:41:15.943Z,2.88
2022-08-19T00:43:43.344Z,2.65
2022-08-19T00:46:10.731Z,2.55
2022-08-19T00:48:38.307Z,2.70
2022-08-19T00:51:06.844Z,2.95
2022-08-19T00:53:35.125Z,3.05
2022-08-19T00:56:07.123Z,3.20
2022-08-19T00:58:36.354Z,3.08
2022-08-19T01:01:05.803Z,3.15
2022-08-19T01:03:57.218Z,2.90
2022-08-19T01:06:20.895Z,4.13
2022-08-19T01:08:50.023Z,3.60
2022-08-19T01:11:18.097Z,3.38
2022-08-19T01:13:49.279Z,3.00
2022-08-19T01:16:20.459Z,2.50
2022-08-19T01:18:50.136Z,3.53
2022-08-19T01:21:25.255Z,3.08
2022-08-19T01:23:52.575Z,2.70
2022-08-19T01:26:23.577Z,2.88
2022-08-19T01:28:54.803Z,2.95
2022-08-19T01:31:33.224Z,3.13
2022-08-19T01:34:02.433Z,3.20
2022-08-19T01:36:39.076Z,2.70
2022-08-19T01:39:11.784Z,2.15
2022-08-19T01:41:39.036Z,2.03
2022-08-19T01:44:17.703Z,2.30
2022-08-19T01:46:48.939Z,3.15
2022-08-19T01:49:18.650Z,2.28
2022-08-19T01:51:46.389Z,1.65
2022-08-19T01:54:23.429Z,1.63
2022-08-19T01:57:01.979Z,1.92
2022-08-19T01:59:30.471Z,3.05
2022-08-19T02:01:57.705Z,2.28
2022-08-19T02:04:26.425Z,2.58
2022-08-19T02:06:53.720Z,1.70
2022-08-19T02:09:21.021Z,2.20
2022-08-19T02:11:48.336Z,1.75
2022-08-19T02:14:15.538Z,2.20
2022-08-19T02:16:42.782Z,1.55
2022-08-19T02:19:11.334Z,3.38
2022-08-19T02:21:38.728Z,2.28
2022-08-19T02:24:06.158Z,1.60
2022-08-19T02:26:34.412Z,2.20
2022-08-19T02:29:01.876Z,1.98
2022-08-19T02:31:29.275Z,2.00
2022-08-19T02:33:57.428Z,1.70
2022-08-19T02:36:26.157Z,2.75
2022-08-19T02:38:54.450Z,1.55
2022-08-19T02:41:33.716Z,1.92
2022-08-19T02:44:28.693Z,1.85
2022-08-19T02:46:52.313Z,1.88
2022-08-19T02:49:20.138Z,2.65
2022-08-19T02:51:47.965Z,3.05
2022-08-19T02:54:16.036Z,1.73
2022-08-19T02:56:44.702Z,1.90
2022-08-19T02:59:12.774Z,2.65
2022-08-19T03:01:42.516Z,1.83
2022-08-19T03:04:15.471Z,2.13
2022-08-19T03:06:45.686Z,1.83
2022-08-19T03:09:13.308Z,2.17
2022-08-19T03:11:40.912Z,2.40
2022-08-19T03:14:10.230Z,2.55
2022-08-19T03:16:49.948Z,1.98
2022-08-19T03:19:19.547Z,2.10
2022-08-19T03:21:47.163Z,1.83
2022-08-19T03:24:16.224Z,2.55
2022-08-19T03:26:46.051Z,1.95
2022-08-19T03:29:13.898Z,2.33
2022-08-19T03:31:52.616Z,2.22
2022-08-19T03:34:27.284Z,2.47
2022-08-19T03:36:56.943Z,2.70
2022-08-19T03:39:26.011Z,2.30
2022-08-19T03:42:33.015Z,2.85
2022-08-19T03:44:46.014Z,2.88
2022-08-19T03:47:17.529Z,2.25
2022-08-19T03:49:45.449Z,2.58
2022-08-19T03:52:12.804Z,2.03
2022-08-19T03:54:40.245Z,2.80
2022-08-19T03:57:08.191Z,3.65
2022-08-19T03:59:36.905Z,2.60
2022-08-19T04:02:10.013Z,2.63
2022-08-19T04:04:44.097Z,3.35
2022-08-19T04:07:16.684Z,3.55
2022-08-19T04:09:44.661Z,2.50
2022-08-19T04:12:11.916Z,2.90
2022-08-19T04:14:39.123Z,3.40
2022-08-19T04:17:06.458Z,3.00
2022-08-19T04:19:37.518Z,4.32
2022-08-19T04:22:05.627Z,3.35
2022-08-19T04:24:33.358Z,2.83
2022-08-19T04:27:02.916Z,3.75
2022-08-19T04:29:31.204Z,3.33
2022-08-19T04:32:08.579Z,2.95
2022-08-19T04:35:15.821Z,3.45
2022-08-19T04:37:27.501Z,2.70
2022-08-19T04:40:20.244Z,2.72
2022-08-19T04:42:47.674Z,2.92
2022-08-19T04:45:15.192Z,2.75
2022-08-19T04:47:47.725Z,3.38
2022-08-19T04:50:27.194Z,5.38
2022-08-19T04:52:56.383Z,2.97
2022-08-19T04:55:26.389Z,3.35
2022-08-19T04:57:54.890Z,4.28
2022-08-19T05:00:22.281Z,3.42
2022-08-19T05:02:50.274Z,3.90
2022-08-19T05:05:18.255Z,3.65
2022-08-19T05:07:45.861Z,4.03
2022-08-19T05:10:13.728Z,3.38
2022-08-19T05:12:41.025Z,3.10
2022-08-19T05:15:09.620Z,4.45
2022-08-19T05:17:38.971Z,3.13
2022-08-19T05:20:26.693Z,4.22
2022-08-19T05:22:54.377Z,3.25
2022-08-19T05:25:22.840Z,4.30
2022-08-19T05:27:50.399Z,3.95
2022-08-19T05:30:18.147Z,3.63
2022-08-19T05:32:45.919Z,4.20
2022-08-19T05:35:13.403Z,4.13
2022-08-19T05:37:41.470Z,4.20
2022-08-19T05:40:10.777Z,3.33
2022-08-19T05:42:38.547Z,4.97
2022-08-19T05:45:06.394Z,3.42
2022-08-19T05:47:33.631Z,2.83
2022-08-19T05:50:02.784Z,4.15
2022-08-19T05:52:33.512Z,2.95
2022-08-19T05:55:00.904Z,3.53
2022-08-19T05:57:30.009Z,2.80
2022-08-19T05:59:59.182Z,2.25
2022-08-19T06:02:31.713Z,2.25
2022-08-19T06:04:59.608Z,2.43
2022-08-19T06:07:26.939Z,2.88
2022-08-19T06:10:00.354Z,1.70
2022-08-19T06:12:35.596Z,2.78
2022-08-19T06:15:10.378Z,2.20
2022-08-19T06:17:37.941Z,2.38
2022-08-19T06:20:08.016Z,2.63
2022-08-19T06:22:43.766Z,2.30
2022-08-19T06:25:12.272Z,2.20
2022-08-19T06:27:58.531Z,2.88
2022-08-19T06:30:28.043Z,2.35
2022-08-19T06:32:55.279Z,2.65
2022-08-19T06:35:22.548Z,3.00
2022-08-19T06:37:49.754Z,2.90
2022-08-19T06:40:17.062Z,2.80
2022-08-19T06:42:50.985Z,2.25
2022-08-19T06:45:25.156Z,2.05
2022-08-19T06:48:02.088Z,1.85
2022-08-19T06:50:30.621Z,2.63
2022-08-19T06:52:57.888Z,1.60
2022-08-19T06:55:30.219Z,2.05
2022-08-19T06:58:04.731Z,2.28
2022-08-19T07:00:32.638Z,1.25
2022-08-19T07:03:06.094Z,1.52
2022-08-19T07:05:41.169Z,1.50
2022-08-19T07:08:13.408Z,1.23
2022-08-19T07:10:44.699Z,1.65
2022-08-19T07:13:12.530Z,1.27
2022-08-19T07:15:39.995Z,1.45
2022-08-19T07:18:07.245Z,1.33
2022-08-19T07:20:41.947Z,1.15
2022-08-19T07:23:16.107Z,1.65
2022-08-19T07:25:52.960Z,1.10
2022-08-19T07:28:24.316Z,1.27
2022-08-19T07:30:53.084Z,0.85
2022-08-19T07:33:20.746Z,2.20
2022-08-19T07:35:48.080Z,1.02
2022-08-19T07:38:17.025Z,1.02
2022-08-19T07:40:47.007Z,1.10
2022-08-19T07:43:17.380Z,1.05
2022-08-19T07:45:46.280Z,0.90
2022-08-19T07:48:13.737Z,0.80
2022-08-19T07:50:41.327Z,0.90
2022-08-19T07:53:08.564Z,0.60
2022-08-19T07:55:42.143Z,0.52
2022-08-19T07:58:13.585Z,2.30
2022-08-19T08:00:42.104Z,0.90
2022-08-19T08:03:09.673Z,0.93
2022-08-19T08:05:55.690Z,0.80
2022-08-19T08:08:44.066Z,0.75
2022-08-19T08:11:20.061Z,1.00
2022-08-19T08:14:01.159Z,1.10
2022-08-19T08:16:39.567Z,1.00
2022-08-19T08:19:20.307Z,0.98
2022-08-19T08:21:54.686Z,0.93
2022-08-19T08:24:22.028Z,1.60
2022-08-19T08:26:57.898Z,1.20
2022-08-19T08:29:34.889Z,1.00
2022-08-19T08:32:02.954Z,1.35
2022-08-19T08:34:30.194Z,1.23
2022-08-19T08:36:57.427Z,1.10
2022-08-19T08:39:24.636Z,1.10
2022-08-19T08:42:09.894Z,0.93
2022-08-19T08:44:44.713Z,1.30
2022-08-19T08:47:19.037Z,1.20
2022-08-19T08:49:51.334Z,1.52
2022-08-19T08:52:24.657Z,1.48
2022-08-19T08:55:10.299Z,1.27
2022-08-19T08:57:55.964Z,1.10
2022-08-19T09:00:23.464Z,1.13
2022-08-19T09:02:51.598Z,1.45
2022-08-19T09:05:26.017Z,2.00
2022-08-19T09:08:08.031Z,1.52
2022-08-19T09:10:44.639Z,1.50
2022-08-19T09:13:37.612Z,1.98
2022-08-19T09:16:11.123Z,1.90
2022-08-19T09:21:16.759Z,1.20
2022-08-19T09:23:44.679Z,1.75
2022-08-19T09:26:16.507Z,1.52
2022-08-19T09:28:48.341Z,2.17
2022-08-19T09:31:25.455Z,1.48
2022-08-19T09:33:53.952Z,1.33
2022-08-19T09:36:31.225Z,1.15
2022-08-19T09:39:02.144Z,1.65
2022-08-19T09:41:29.927Z,1.08
2022-08-19T09:43:58.552Z,1.60
2022-08-19T09:46:28.444Z,1.02
2022-08-19T09:49:06.006Z,1.25
2022-08-19T09:51:35.009Z,1.20
2022-08-19T09:54:04.526Z,1.70
2022-08-19T09:56:34.123Z,1.08
2022-08-19T09:59:04.620Z,1.02
2022-08-19T10:01:32.980Z,1.60
2022-08-19T10:04:07.592Z,2.45
2022-08-19T10:06:46.777Z,1.10
2022-08-19T10:09:16.015Z,1.00
2022-08-19T10:11:54.469Z,0.80
2022-08-19T10:14:24.847Z,0.73
2022-08-19T10:16:52.891Z,0.85
2022-08-19T10:19:26.135Z,0.90
2022-08-19T10:24:21.712Z,1.00
2022-08-19T10:26:55.786Z,0.80
2022-08-19T10:29:32.706Z,0.95
2022-08-19T10:32:09.693Z,1.08
2022-08-19T10:34:48.931Z,0.80
2022-08-19T10:37:28.891Z,1.02
2022-08-19T10:39:58.863Z,1.55
2022-08-19T10:42:26.267Z,1.13
2022-08-19T10:44:53.572Z,0.90
2022-08-19T10:47:25.370Z,0.95
2022-08-19T10:50:13.427Z,0.90
2022-08-19T10:52:49.209Z,0.88
2022-08-19T10:55:40.164Z,0.75
2022-08-19T10:58:13.313Z,0.68
2022-08-19T11:00:41.503Z,1.05
2022-08-19T11:03:09.623Z,1.80
2022-08-19T11:05:39.879Z,0.80
2022-08-19T11:08:21.232Z,0.90
2022-08-19T11:11:01.703Z,1.30
2022-08-19T11:13:30.590Z,0.77
2022-08-19T11:16:07.705Z,0.70
2022-08-19T11:18:37.671Z,1.10
2022-08-19T11:21:18.236Z,0.70
2022-08-19T11:23:47.945Z,0.90
2022-08-19T11:26:16.652Z,0.50
2022-08-19T11:28:44.037Z,0.60
2022-08-19T11:31:17.467Z,1.25
2022-08-19T11:33:47.149Z,0.80
2022-08-19T11:36:17.108Z,0.70
2022-08-19T11:38:45.915Z,0.80
2022-08-19T11:41:13.211Z,0.57
2022-08-19T11:43:41.095Z,0.63
2022-08-19T11:46:11.525Z,0.60
2022-08-19T11:48:39.520Z,0.80
2022-08-19T11:51:09.850Z,0.50
2022-08-19T11:53:38.287Z,0.65
2022-08-19T11:56:07.012Z,0.52
2022-08-19T11:58:35.256Z,0.90
2022-08-19T12:01:05.968Z,1.05
2022-08-19T12:03:33.405Z,1.02
2022-08-19T12:06:06.110Z,0.77
2022-08-19T12:08:33.541Z,0.63
2022-08-19T12:11:03.996Z,0.63
2022-08-19T12:13:32.019Z,0.50
2022-08-19T12:16:00.411Z,0.40
2022-08-19T12:18:27.799Z,0.90
2022-08-19T12:20:58.320Z,0.75
2022-08-19T12:23:25.836Z,0.80
2022-08-19T12:25:53.147Z,0.70
2022-08-19T12:28:21.896Z,0.80
2022-08-19T12:30:52.045Z,0.63
2022-08-19T12:33:24.842Z,0.60
2022-08-19T12:35:52.972Z,1.05
2022-08-19T12:38:20.880Z,0.80
2022-08-19T12:40:49.120Z,0.55
2022-08-19T12:43:16.740Z,0.70
2022-08-19T12:45:44.643Z,0.88
2022-08-19T12:48:33.369Z,0.60
2022-08-19T12:51:08.160Z,0.65
2022-08-19T12:53:39.262Z,0.60
2022-08-19T12:56:11.465Z,0.40
2022-08-19T12:58:40.541Z,0.45
2022-08-19T13:01:15.751Z,1.35
2022-08-19T13:03:47.623Z,0.70
2022-08-19T13:06:15.983Z,1.13
2022-08-19T13:08:46.830Z,0.75
2022-08-19T13:11:20.388Z,0.65
2022-08-19T13:13:49.320Z,0.65
2022-08-19T13:16:16.899Z,0.80
2022-08-19T13:18:48.323Z,0.50
2022-08-19T13:21:16.134Z,0.60
2022-08-19T13:23:43.452Z,0.75
2022-08-19T13:26:12.627Z,4.30
2022-08-19T13:29:00.040Z,4.53
2022-08-19T13:31:51.112Z,0.73
2022-08-19T13:34:26.516Z,1.50
2022-08-19T13:36:58.650Z,2.55
2022-08-19T13:39:26.276Z,1.40
2022-08-19T13:41:53.688Z,0.68
2022-08-19T13:44:21.522Z,0.63
2022-08-19T13:46:54.146Z,1.98
2022-08-19T13:49:22.433Z,1.30
2022-08-19T13:51:49.727Z,0.88
2022-08-19T13:54:17.044Z,0.65
2022-08-19T13:56:45.896Z,0.90
2022-08-19T13:59:13.338Z,1.00
2022-08-19T14:01:41.992Z,1.30
2022-08-19T14:04:09.739Z,0.65
2022-08-19T14:06:37.017Z,0.60
2022-08-19T14:09:05.598Z,1.83
2022-08-19T14:11:32.830Z,0.75
2022-08-19T14:14:00.106Z,1.13
2022-08-19T14:16:28.238Z,1.10
2022-08-19T14:18:55.824Z,1.40
2022-08-19T14:21:25.476Z,0.77
2022-08-19T14:23:53.798Z,1.50
2022-08-19T14:26:22.515Z,0.88
2022-08-19T14:28:50.406Z,0.80
2022-08-19T14:31:19.939Z,0.80
2022-08-19T14:33:51.677Z,1.02
2022-08-19T14:36:21.248Z,1.08
2022-08-19T14:38:49.781Z,1.13
2022-08-19T14:41:20.445Z,0.90
2022-08-19T14:43:50.761Z,0.60
2022-08-19T14:46:21.539Z,1.20
2022-08-19T14:48:50.739Z,0.90
2022-08-19T14:51:21.875Z,0.70
2022-08-19T14:53:52.255Z,0.88
2022-08-19T14:56:23.311Z,1.38
2022-08-19T14:58:54.228Z,0.82
2022-08-19T15:01:24.974Z,0.70
2022-08-19T15:03:55.720Z,0.90
2022-08-19T15:06:25.019Z,0.60
2022-08-19T15:08:52.759Z,0.90
2022-08-19T15:11:23.595Z,0.90
2022-08-19T15:13:51.517Z,1.58
2022-08-19T15:16:19.263Z,2.95
2022-08-19T15:18:50.637Z,1.02
2022-08-19T15:21:27.196Z,1.05
2022-08-19T15:23:57.270Z,1.50
2022-08-19T15:26:27.322Z,0.77
2022-08-19T15:28:55.012Z,0.70
2022-08-19T15:31:28.096Z,0.75
2022-08-19T15:33:59.191Z,1.13
2022-08-19T15:36:27.425Z,0.80
2022-08-19T15:38:56.310Z,0.88
2022-08-19T15:41:30.656Z,0.88
2022-08-19T15:44:01.554Z,1.58
2022-08-19T15:46:30.959Z,1.30
2022-08-19T15:49:00.204Z,0.80
2022-08-19T15:51:30.420Z,1.00
2022-08-19T15:54:00.129Z,0.80
2022-08-19T15:56:47.339Z,0.80
2022-08-19T15:59:47.089Z,0.90
2022-08-19T16:02:36.918Z,1.00
2022-08-19T16:05:26.380Z,1.40
2022-08-19T16:07:54.626Z,2.10
2022-08-19T16:10:27.234Z,1.38
2022-08-19T16:15:27.861Z,0.90
2022-08-19T16:17:57.647Z,0.70
2022-08-19T16:20:27.875Z,1.42
2022-08-19T16:22:58.184Z,1.50
2022-08-19T16:25:28.564Z,0.80
2022-08-19T16:28:07.953Z,0.82
2022-08-19T16:30:37.841Z,0.80
2022-08-19T16:33:05.622Z,0.90
2022-08-19T16:35:32.912Z,1.10
2022-08-19T16:38:01.122Z,1.38
2022-08-19T16:40:28.480Z,1.20
2022-08-19T16:42:56.482Z,1.30
2022-08-19T16:45:23.772Z,1.05
2022-08-19T16:47:51.116Z,1.05
2022-08-19T16:50:25.416Z,1.20
2022-08-19T16:53:07.239Z,1.60
2022-08-19T16:55:34.424Z,1.60
2022-08-19T16:58:04.359Z,2.33
2022-08-19T17:00:31.673Z,2.47
2022-08-19T17:03:14.649Z,1.67
2022-08-19T17:08:17.883Z,1.52
2022-08-19T17:11:07.909Z,1.60
2022-08-19T17:13:33.200Z,1.20
2022-08-19T17:16:00.542Z,1.27
2022-08-19T17:18:31.773Z,1.30
2022-08-19T17:21:01.191Z,1.30
2022-08-19T17:23:42.710Z,1.15
2022-08-19T17:26:17.974Z,1.10
2022-08-19T17:28:49.636Z,1.20
2022-08-19T17:31:18.856Z,1.10
2022-08-19T17:33:48.030Z,1.23
2022-08-19T17:36:23.524Z,1.17
2022-08-19T17:38:55.263Z,1.02
2022-08-19T17:41:24.540Z,0.80
2022-08-19T17:43:52.257Z,1.20
2022-08-19T17:46:20.306Z,0.75
2022-08-19T17:48:56.670Z,0.90
2022-08-19T17:51:32.884Z,1.00
2022-08-19T17:54:00.816Z,1.10
2022-08-19T17:56:28.818Z,0.90
2022-08-19T17:59:00.134Z,1.00
2022-08-19T18:01:43.869Z,1.00
2022-08-19T18:04:18.704Z,0.90
2022-08-19T18:06:53.181Z,1.40
2022-08-19T18:09:42.428Z,1.02
2022-08-19T18:12:12.834Z,1.42
2022-08-19T18:14:41.297Z,1.30
2022-08-19T18:17:11.675Z,1.27
2022-08-19T18:19:42.726Z,1.00
2022-08-19T18:22:29.536Z,0.95
2022-08-19T18:24:58.547Z,1.10
2022-08-19T18:27:27.745Z,1.50
2022-08-19T18:29:59.240Z,0.98
2022-08-19T18:32:34.032Z,1.00
2022-08-19T18:35:03.885Z,1.10
2022-08-19T18:37:31.078Z,0.98
2022-08-19T18:40:16.633Z,1.20
2022-08-19T18:43:04.033Z,1.05
2022-08-19T18:45:50.306Z,1.00
2022-08-19T18:48:36.355Z,1.02
2022-08-19T18:51:03.792Z,1.02
2022-08-19T18:53:34.607Z,1.00
2022-08-19T18:56:02.030Z,1.15
2022-08-19T18:58:33.820Z,1.00
2022-08-19T19:01:16.438Z,1.10
2022-08-19T19:03:46.677Z,1.23
2022-08-19T19:06:19.884Z,1.42
2022-08-19T19:11:22.588Z,1.20
2022-08-19T19:13:49.859Z,1.02
2022-08-19T19:16:22.387Z,1.30
2022-08-19T19:18:52.831Z,1.58
2022-08-19T19:21:23.039Z,1.60
2022-08-19T19:23:51.411Z,2.20
2022-08-19T19:26:18.801Z,1.70
2022-08-19T19:28:46.154Z,1.75
2022-08-19T19:31:19.331Z,1.63
2022-08-19T19:33:46.610Z,1.67
2022-08-19T19:36:14.263Z,1.75
2022-08-19T19:38:48.610Z,1.67
2022-08-19T19:41:24.224Z,1.20
2022-08-19T19:44:23.270Z,2.08
2022-08-19T19:46:43.927Z,1.40
2022-08-19T19:49:12.831Z,1.40
2022-08-19T19:51:41.411Z,1.50
2022-08-19T19:54:15.669Z,1.75
2022-08-19T19:56:45.009Z,1.63
2022-08-19T19:59:12.420Z,1.40
2022-08-19T20:01:40.980Z,1.35
2022-08-19T20:04:16.149Z,1.45
2022-08-19T20:06:45.495Z,1.73
2022-08-19T20:09:19.755Z,2.10
2022-08-19T20:11:53.383Z,1.75
2022-08-19T20:14:31.416Z,1.25
2022-08-19T20:17:00.218Z,1.35
2022-08-19T20:19:34.247Z,1.75
2022-08-19T20:22:01.545Z,2.13
2022-08-19T20:24:32.684Z,2.45
2022-08-19T20:27:01.423Z,1.60
2022-08-19T20:29:39.124Z,1.88
2022-08-19T20:32:10.208Z,1.83
2022-08-19T20:34:39.364Z,1.60
2022-08-19T20:37:09.303Z,1.60
2022-08-19T20:39:38.115Z,1.60
2022-08-19T20:42:05.685Z,1.60
2022-08-19T20:44:32.921Z,1.85
2022-08-19T20:47:03.608Z,1.33
2022-08-19T20:49:32.089Z,1.63
2022-08-19T20:51:59.383Z,1.80
2022-08-19T20:54:27.078Z,1.90
2022-08-19T20:56:54.556Z,1.55
2022-08-19T20:59:22.994Z,1.92
2022-08-19T21:01:51.872Z,1.80
2022-08-19T21:04:22.355Z,1.60
2022-08-19T21:06:50.588Z,1.65
2022-08-19T21:09:18.299Z,1.60
2022-08-19T21:11:45.624Z,1.75
2022-08-19T21:14:13.181Z,1.27
2022-08-19T21:16:40.519Z,1.90
2022-08-19T21:19:07.911Z,1.92
2022-08-19T21:21:35.272Z,3.20
2022-08-19T21:24:03.234Z,3.03
2022-08-19T21:26:30.557Z,3.22
2022-08-19T21:28:57.881Z,4.38
2022-08-19T21:31:25.251Z,3.97
2022-08-19T21:33:52.543Z,5.38
2022-08-19T21:36:19.940Z,7.80
2022-08-19T21:38:47.224Z,6.97
2022-08-19T21:41:14.552Z,7.03
2022-08-19T21:43:42.049Z,5.97
2022-08-19T21:46:09.554Z,5.82
2022-08-19T21:48:36.904Z,5.70
2022-08-19T21:51:04.268Z,4.70
2022-08-19T21:53:34.169Z,5.05
2022-08-19T21:56:03.860Z,5.28
2022-08-19T21:58:31.147Z,4.93
2022-08-19T22:01:05.695Z,4.97
2022-08-19T22:03:35.145Z,4.60
2022-08-19T22:06:02.870Z,4.78
2022-08-19T22:08:31.456Z,4.28
2022-08-19T22:11:01.392Z,4.22
2022-08-19T22:13:37.951Z,5.10
2022-08-19T22:16:07.670Z,4.10
2022-08-19T22:18:35.444Z,4.72
2022-08-19T22:21:06.391Z,4.47
2022-08-19T22:23:36.884Z,3.60
2022-08-19T22:26:04.275Z,5.55
2022-08-19T22:28:31.504Z,4.22
2022-08-19T22:30:58.754Z,4.68
2022-08-19T22:33:27.804Z,4.95
2022-08-19T22:35:56.028Z,4.45
2022-08-19T22:38:23.976Z,4.55
2022-08-19T22:40:52.882Z,6.18
2022-08-19T22:43:25.483Z,4.07
2022-08-19T22:45:54.627Z,3.65
2022-08-19T22:48:26.008Z,3.55
2022-08-19T22:51:13.899Z,3.40
2022-08-19T22:53:45.043Z,3.08
2022-08-19T22:56:15.456Z,3.50
2022-08-19T22:58:43.703Z,2.95
2022-08-19T23:01:14.620Z,3.28
2022-08-19T23:03:52.471Z,3.42
2022-08-19T23:06:19.747Z,4.38
2022-08-19T23:08:47.412Z,4.20
2022-08-19T23:11:15.131Z,3.00
2022-08-19T23:13:42.624Z,2.50
2022-08-19T23:16:09.963Z,2.67
2022-08-19T23:18:37.275Z,2.90
2022-08-19T23:21:09.623Z,2.60
2022-08-19T23:23:37.896Z,3.22
2022-08-19T23:26:10.818Z,2.38
2022-08-19T23:28:57.732Z,2.30
2022-08-19T23:31:26.732Z,2.75
2022-08-19T23:33:53.992Z,2.45
2022-08-19T23:36:22.577Z,2.08
2022-08-19T23:38:52.247Z,2.40
2022-08-19T23:41:21.428Z,2.10
2022-08-19T23:43:50.847Z,2.55
2022-08-19T23:48:57.403Z,2.25
2022-08-19T23:51:26.511Z,2.08
2022-08-19T23:53:54.225Z,2.20
2022-08-19T23:56:21.532Z,2.63
2022-08-19T23:58:49.314Z,2.72
